Time,TemperatureF,DewpointF,PressureIn,WindDirection,WindDirectionDegrees,WindSpeedMPH,WindSpeedGustMPH,Humidity,HourlyPrecipIn,Conditions,Clouds,dailyrainin,SoftwareType,DateUTC
2013-09-13 00:00:00,74.2,70.4,29.83,ESE,111,0.0,0.0,88,0.00,,,0.03,Wunderground v.1.15,2013-09-13 04:00:00,
2013-09-13 00:05:00,74.2,70.4,29.83,ESE,111,0.0,0.0,88,0.00,,,0.03,Wunderground v.1.15,2013-09-13 04:05:00,
2013-09-13 00:10:00,74.2,70.7,29.82,ESE,111,0.0,0.0,89,0.00,,,0.03,Wunderground v.1.15,2013-09-13 04:10:00,
2013-09-13 00:20:00,74.2,70.7,29.82,ESE,111,0.0,0.0,89,0.00,,,0.03,Wunderground v.1.15,2013-09-13 04:20:00,
2013-09-13 00:30:00,74.0,70.9,29.82,ESE,111,0.0,0.0,90,0.00,,,0.03,Wunderground v.1.15,2013-09-13 04:30:00,
2013-09-13 00:40:00,73.9,70.8,29.82,ESE,111,0.0,0.0,90,0.00,,,0.03,Wunderground v.1.15,2013-09-13 04:40:00,
2013-09-13 00:45:00,73.9,71.1,29.82,ESE,111,0.0,0.0,91,0.00,,,0.03,Wunderground v.1.15,2013-09-13 04:45:00,
2013-09-13 00:50:00,73.7,70.9,29.82,ESE,111,0.0,0.0,91,0.00,,,0.03,Wunderground v.1.15,2013-09-13 04:50:00,
2013-09-13 01:00:00,73.7,70.9,29.81,ESE,111,0.0,0.0,91,0.00,,,0.00,Wunderground v.1.15,2013-09-13 05:00:00,
2013-09-13 01:10:00,73.7,70.9,29.81,ESE,111,0.0,0.0,91,0.00,,,0.00,Wunderground v.1.15,2013-09-13 05:10:00,
2013-09-13 01:20:00,73.5,71.0,29.81,ESE,111,0.0,0.0,92,0.00,,,0.00,Wunderground v.1.15,2013-09-13 05:20:00,
2013-09-13 01:30:00,73.5,71.0,29.81,ESE,111,0.0,0.0,92,0.00,,,0.00,Wunderground v.1.15,2013-09-13 05:30:00,
2013-09-13 01:35:00,73.5,71.0,29.81,ESE,111,0.0,0.0,92,0.00,,,0.00,Wunderground v.1.15,2013-09-13 05:35:00,
2013-09-13 01:40:00,73.5,71.0,29.81,ESE,111,0.0,0.0,92,0.00,,,0.00,Wunderground v.1.15,2013-09-13 05:40:00,
2013-09-13 01:50:00,73.5,71.0,29.81,ESE,111,0.0,0.0,92,0.00,,,0.00,Wunderground v.1.15,2013-09-13 05:50:00,
2013-09-13 02:00:00,73.3,70.8,29.81,ESE,111,0.0,0.0,92,0.00,,,0.00,Wunderground v.1.15,2013-09-13 06:00:00,
2013-09-13 02:10:00,73.2,70.7,29.81,ESE,111,0.0,0.0,92,0.00,,,0.00,Wunderground v.1.15,2013-09-13 06:10:00,
2013-09-13 02:20:00,73.0,70.9,29.81,ESE,110,0.0,0.0,93,0.00,,,0.00,Wunderground v.1.15,2013-09-13 06:20:00,
2013-09-13 02:30:00,73.0,70.9,29.81,ESE,109,0.0,0.0,93,0.00,,,0.00,Wunderground v.1.15,2013-09-13 06:30:00,
2013-09-13 02:40:00,72.8,70.7,29.81,ESE,109,0.0,0.0,93,0.00,,,0.00,Wunderground v.1.15,2013-09-13 06:40:00,
2013-09-13 02:45:00,72.8,70.7,29.81,ESE,109,0.0,0.0,93,0.00,,,0.00,Wunderground v.1.15,2013-09-13 06:45:00,
2013-09-13 02:55:00,72.8,70.7,29.80,ESE,109,0.0,0.0,93,0.00,,,0.00,Wunderground v.1.15,2013-09-13 06:55:00,
2013-09-13 03:00:00,72.7,70.6,29.80,ESE,109,0.0,0.0,93,0.00,,,0.00,Wunderground v.1.15,2013-09-13 07:00:00,
2013-09-13 03:10:00,72.7,70.6,29.80,ESE,109,0.0,0.0,93,0.00,,,0.00,Wunderground v.1.15,2013-09-13 07:10:00,
2013-09-13 03:20:00,72.7,70.6,29.80,ESE,109,0.0,0.0,93,0.00,,,0.00,Wunderground v.1.15,2013-09-13 07:20:00,
2013-09-13 03:30:00,72.5,70.7,29.80,ESE,109,0.0,0.0,94,0.00,,,0.00,Wunderground v.1.15,2013-09-13 07:30:00,
2013-09-13 03:40:00,72.5,70.7,29.80,ESE,109,0.0,0.0,94,0.00,,,0.00,Wunderground v.1.15,2013-09-13 07:40:00,
2013-09-13 03:50:00,72.5,70.7,29.80,ESE,109,0.0,0.0,94,0.00,,,0.00,Wunderground v.1.15,2013-09-13 07:50:00,
2013-09-13 04:00:00,72.5,70.7,29.79,ESE,110,0.0,0.0,94,0.00,,,0.00,Wunderground v.1.15,2013-09-13 08:00:00,
2013-09-13 04:10:00,72.7,70.9,29.79,ESE,110,0.0,0.0,94,0.00,,,0.00,Wunderground v.1.15,2013-09-13 08:10:00,
2013-09-13 04:20:00,72.7,70.9,29.79,ESE,110,0.0,0.0,94,0.00,,,0.00,Wunderground v.1.15,2013-09-13 08:20:00,
2013-09-13 04:30:00,72.7,70.9,29.79,ESE,110,0.0,0.0,94,0.00,,,0.00,Wunderground v.1.15,2013-09-13 08:30:00,
2013-09-13 04:40:00,72.5,70.7,29.79,ESE,110,0.0,0.0,94,0.00,,,0.00,Wunderground v.1.15,2013-09-13 08:40:00,
2013-09-13 04:50:00,72.5,70.7,29.79,ESE,110,0.0,0.0,94,0.00,,,0.00,Wunderground v.1.15,2013-09-13 08:50:00,
2013-09-13 05:00:00,72.5,70.7,29.79,ESE,110,0.0,0.0,94,0.00,,,0.00,Wunderground v.1.15,2013-09-13 09:00:00,
2013-09-13 05:10:00,72.5,70.7,29.78,ESE,110,0.0,0.0,94,0.00,,,0.00,Wunderground v.1.15,2013-09-13 09:10:00,
2013-09-13 05:20:00,72.5,71.0,29.78,ESE,110,0.0,0.0,95,0.00,,,0.00,Wunderground v.1.15,2013-09-13 09:20:00,
2013-09-13 05:30:00,72.5,71.0,29.78,ESE,110,0.0,0.0,95,0.00,,,0.00,Wunderground v.1.15,2013-09-13 09:30:00,
2013-09-13 05:40:00,72.5,71.0,29.79,ESE,110,0.0,0.0,95,0.00,,,0.00,Wunderground v.1.15,2013-09-13 09:40:00,
2013-09-13 05:50:00,72.5,71.0,29.79,ESE,110,0.0,0.0,95,0.00,,,0.00,Wunderground v.1.15,2013-09-13 09:50:00,
2013-09-13 06:00:00,72.7,71.2,29.79,ESE,110,0.0,0.0,95,0.00,,,0.00,Wunderground v.1.15,2013-09-13 10:00:00,
2013-09-13 06:10:00,72.8,71.3,29.79,ESE,110,0.0,0.0,95,0.00,,,0.00,Wunderground v.1.15,2013-09-13 10:10:00,
2013-09-13 06:20:00,72.8,71.3,29.79,ESE,110,0.0,0.0,95,0.00,,,0.00,Wunderground v.1.15,2013-09-13 10:20:00,
2013-09-13 06:30:00,72.8,71.3,29.79,ESE,110,0.0,0.0,95,0.00,,,0.00,Wunderground v.1.15,2013-09-13 10:30:00,
2013-09-13 06:40:00,73.0,71.5,29.80,ESE,110,0.0,0.0,95,0.00,,,0.00,Wunderground v.1.15,2013-09-13 10:40:00,
2013-09-13 06:45:00,73.0,71.5,29.80,ESE,110,0.0,0.0,95,0.00,,,0.00,Wunderground v.1.15,2013-09-13 10:45:00,
2013-09-13 06:55:00,73.0,71.5,29.80,ESE,110,0.0,0.0,95,0.00,,,0.00,Wunderground v.1.15,2013-09-13 10:55:00,
2013-09-13 07:05:00,73.0,71.5,29.80,ESE,110,0.0,0.0,95,0.00,,,0.00,Wunderground v.1.15,2013-09-13 11:05:00,
2013-09-13 07:15:00,73.2,71.7,29.80,ESE,110,0.0,0.0,95,0.00,,,0.00,Wunderground v.1.15,2013-09-13 11:15:00,
2013-09-13 07:20:00,73.2,71.7,29.80,ESE,110,0.0,0.0,95,0.00,,,0.00,Wunderground v.1.15,2013-09-13 11:20:00,
2013-09-13 07:30:00,73.2,71.7,29.80,ESE,110,0.0,0.0,95,0.00,,,0.00,Wunderground v.1.15,2013-09-13 11:30:00,
2013-09-13 07:40:00,73.3,71.8,29.80,ESE,110,0.0,0.0,95,0.00,,,0.00,Wunderground v.1.15,2013-09-13 11:40:00,
2013-09-13 07:50:00,73.9,72.4,29.80,ESE,110,0.0,0.0,95,0.00,,,0.00,Wunderground v.1.15,2013-09-13 11:50:00,
2013-09-13 08:00:00,74.2,72.4,29.81,ESE,110,0.0,0.0,94,0.00,,,0.00,Wunderground v.1.15,2013-09-13 12:00:00,
2013-09-13 08:10:00,74.9,72.7,29.81,ESE,110,0.0,0.0,93,0.00,,,0.00,Wunderground v.1.15,2013-09-13 12:10:00,
2013-09-13 08:20:00,75.4,72.9,29.81,ESE,111,0.0,0.0,92,0.00,,,0.00,Wunderground v.1.15,2013-09-13 12:20:00,
2013-09-13 08:30:00,76.0,72.5,29.81,ESE,111,0.0,0.0,89,0.00,,,0.00,Wunderground v.1.15,2013-09-13 12:30:00,
2013-09-13 08:40:00,76.7,72.5,29.81,ESE,111,0.0,0.0,87,0.00,,,0.00,Wunderground v.1.15,2013-09-13 12:40:00,
2013-09-13 08:50:00,77.4,72.2,29.81,ESE,113,0.0,0.0,84,0.00,,,0.00,Wunderground v.1.15,2013-09-13 12:50:00,
2013-09-13 09:00:00,78.5,72.2,29.81,ESE,117,0.0,0.0,81,0.00,,,0.00,Wunderground v.1.15,2013-09-13 13:00:00,
2013-09-13 09:10:00,79.8,72.3,29.81,ESE,117,0.0,0.0,78,0.00,,,0.00,Wunderground v.1.15,2013-09-13 13:10:00,
2013-09-13 09:15:00,80.1,72.2,29.81,ESE,117,0.0,0.0,77,0.00,,,0.00,Wunderground v.1.15,2013-09-13 13:15:00,
2013-09-13 09:25:00,80.9,71.0,29.80,ENE,78,0.0,0.0,72,0.00,,,0.00,Wunderground v.1.15,2013-09-13 13:25:00,
2013-09-13 09:35:00,81.8,72.3,29.80,ENE,78,0.0,0.0,73,0.00,,,0.00,Wunderground v.1.15,2013-09-13 13:35:00,
2013-09-13 09:45:00,82.2,71.0,29.80,NNW,333,0.0,0.0,69,0.00,,,0.00,Wunderground v.1.15,2013-09-13 13:45:00,
2013-09-13 09:50:00,82.8,71.6,29.80,NNW,342,0.0,0.0,69,0.00,,,0.00,Wunderground v.1.15,2013-09-13 13:50:00,
2013-09-13 10:00:00,83.0,72.2,29.81,North,0,0.0,0.0,70,0.00,,,0.00,Wunderground v.1.15,2013-09-13 14:00:00,
2013-09-13 10:10:00,83.2,72.0,29.81,North,356,0.0,0.0,69,0.00,,,0.00,Wunderground v.1.15,2013-09-13 14:10:00,
2013-09-13 10:20:00,83.6,71.9,29.81,NE,34,0.0,3.0,68,0.00,,,0.00,Wunderground v.1.15,2013-09-13 14:20:00,
2013-09-13 10:30:00,84.1,72.8,29.81,NE,37,0.0,0.0,69,0.00,,,0.00,Wunderground v.1.15,2013-09-13 14:30:00,
2013-09-13 10:35:00,84.1,72.4,29.81,NNW,332,0.0,0.0,68,0.00,,,0.00,Wunderground v.1.15,2013-09-13 14:35:00,
2013-09-13 10:40:00,84.1,72.0,29.81,NNW,328,0.0,0.0,67,0.00,,,0.00,Wunderground v.1.15,2013-09-13 14:40:00,
2013-09-13 10:50:00,84.5,72.3,29.81,NW,324,0.0,0.0,67,0.00,,,0.00,Wunderground v.1.15,2013-09-13 14:50:00,
2013-09-13 11:00:00,84.0,72.7,29.81,NNW,335,1.0,1.0,69,0.00,,,0.00,Wunderground v.1.15,2013-09-13 15:00:00,
2013-09-13 11:10:00,84.3,72.6,29.81,NW,320,1.0,1.0,68,0.00,,,0.00,Wunderground v.1.15,2013-09-13 15:10:00,
2013-09-13 11:15:00,84.1,72.4,29.81,NW,317,4.0,13.0,68,0.00,,,0.00,Wunderground v.1.15,2013-09-13 15:15:00,
2013-09-13 11:25:00,83.8,72.1,29.81,NNW,333,5.0,9.0,68,0.00,,,0.00,Wunderground v.1.15,2013-09-13 15:25:00,
2013-09-13 11:35:00,84.0,73.2,29.81,WNW,297,4.0,15.0,70,0.00,,,0.00,Wunderground v.1.15,2013-09-13 15:35:00,
2013-09-13 11:45:00,84.0,72.7,29.81,NNW,333,6.0,7.0,69,0.00,,,0.00,Wunderground v.1.15,2013-09-13 15:45:00,
2013-09-13 11:50:00,84.0,73.2,29.81,NNW,338,6.0,12.0,70,0.00,,,0.00,Wunderground v.1.15,2013-09-13 15:50:00,
2013-09-13 12:00:00,84.1,72.0,29.81,NW,314,7.0,7.0,67,0.00,,,0.00,Wunderground v.1.15,2013-09-13 16:00:00,
2013-09-13 12:10:00,84.7,72.5,29.80,NW,307,1.0,1.0,67,0.00,,,0.00,Wunderground v.1.15,2013-09-13 16:10:00,
2013-09-13 12:20:00,85.3,72.2,29.80,NNE,28,3.0,3.0,65,0.00,,,0.00,Wunderground v.1.15,2013-09-13 16:20:00,
2013-09-13 12:25:00,85.7,72.1,29.80,NW,314,2.0,15.0,64,0.00,,,0.00,Wunderground v.1.15,2013-09-13 16:25:00,
2013-09-13 12:35:00,85.7,71.7,29.80,NW,317,7.0,15.0,63,0.00,,,0.00,Wunderground v.1.15,2013-09-13 16:35:00,
2013-09-13 12:40:00,85.5,72.4,29.80,North,8,9.0,9.0,65,0.00,,,0.00,Wunderground v.1.15,2013-09-13 16:40:00,
2013-09-13 12:50:00,85.9,72.3,29.80,WNW,289,7.0,19.0,64,0.00,,,0.00,Wunderground v.1.15,2013-09-13 16:50:00,
2013-09-13 13:00:00,85.5,71.9,29.79,West,278,11.0,11.0,64,0.00,,,0.00,Wunderground v.1.15,2013-09-13 17:00:00,
2013-09-13 13:05:00,85.5,72.4,29.79,NNW,333,11.0,15.0,65,0.00,,,0.00,Wunderground v.1.15,2013-09-13 17:05:00,
2013-09-13 13:15:00,85.7,73.0,29.78,West,262,8.0,15.0,66,0.00,,,0.00,Wunderground v.1.15,2013-09-13 17:15:00,
2013-09-13 13:25:00,85.9,73.2,29.78,West,279,9.0,15.0,66,0.00,,,0.00,Wunderground v.1.15,2013-09-13 17:25:00,
2013-09-13 13:35:00,86.1,72.0,29.78,WNW,302,9.0,17.0,63,0.00,,,0.00,Wunderground v.1.15,2013-09-13 17:35:00,
2013-09-13 13:45:00,85.9,72.8,29.77,NW,326,11.0,17.0,65,0.00,,,0.00,Wunderground v.1.15,2013-09-13 17:45:00,
2013-09-13 13:55:00,85.7,73.9,29.77,West,262,14.0,15.0,68,0.00,,,0.00,Wunderground v.1.15,2013-09-13 17:55:00,
2013-09-13 14:05:00,85.3,73.5,29.77,West,275,14.0,20.0,68,0.00,,,0.00,Wunderground v.1.15,2013-09-13 18:05:00,
2013-09-13 14:10:00,85.5,72.8,29.77,NNW,330,14.0,14.0,66,0.00,,,0.00,Wunderground v.1.15,2013-09-13 18:10:00,
2013-09-13 14:20:00,85.5,73.7,29.77,West,276,13.0,13.0,68,0.00,,,0.00,Wunderground v.1.15,2013-09-13 18:20:00,
2013-09-13 14:25:00,85.7,74.4,29.76,WSW,249,12.0,15.0,69,0.00,,,0.00,Wunderground v.1.15,2013-09-13 18:25:00,
2013-09-13 14:35:00,85.7,74.4,29.76,WNW,302,14.0,22.0,69,0.00,,,0.00,Wunderground v.1.15,2013-09-13 18:35:00,
2013-09-13 14:45:00,85.5,74.2,29.76,West,267,17.0,21.0,69,0.00,,,0.00,Wunderground v.1.15,2013-09-13 18:45:00,
2013-09-13 14:55:00,84.9,74.0,29.76,WNW,296,16.0,21.0,70,0.00,,,0.00,Wunderground v.1.15,2013-09-13 18:55:00,
2013-09-13 15:05:00,84.5,74.1,29.76,WNW,301,18.0,18.0,71,0.00,,,0.00,Wunderground v.1.15,2013-09-13 19:05:00,
2013-09-13 15:15:00,84.3,74.3,29.75,WNW,284,15.0,29.0,72,0.00,,,0.00,Wunderground v.1.15,2013-09-13 19:15:00,
2013-09-13 15:25:00,83.8,73.8,29.75,NW,313,16.0,16.0,72,0.00,,,0.00,Wunderground v.1.15,2013-09-13 19:25:00,
2013-09-13 15:35:00,83.4,74.2,29.75,NNW,340,16.0,29.0,74,0.00,,,0.00,Wunderground v.1.15,2013-09-13 19:35:00,
2013-09-13 15:45:00,82.2,73.5,29.74,NW,326,12.0,29.0,75,0.00,,,0.00,Wunderground v.1.15,2013-09-13 19:45:00,
2013-09-13 15:55:00,82.2,73.5,29.74,NW,321,10.0,29.0,75,0.00,,,0.00,Wunderground v.1.15,2013-09-13 19:55:00,
2013-09-13 16:05:00,82.4,73.7,29.74,NW,313,3.0,9.0,75,0.00,,,0.00,Wunderground v.1.15,2013-09-13 20:05:00,
2013-09-13 16:15:00,82.6,73.5,29.74,NW,311,5.0,29.0,74,0.00,,,0.00,Wunderground v.1.15,2013-09-13 20:15:00,
2013-09-13 16:25:00,83.4,73.4,29.74,WNW,297,1.0,29.0,72,0.00,,,0.00,Wunderground v.1.15,2013-09-13 20:25:00,
2013-09-13 16:35:00,84.7,73.4,29.74,WSW,243,5.0,29.0,69,0.00,,,0.00,Wunderground v.1.15,2013-09-13 20:35:00,
2013-09-13 16:45:00,85.5,74.2,29.74,NNW,335,8.0,29.0,69,0.00,,,0.00,Wunderground v.1.15,2013-09-13 20:45:00,
2013-09-13 16:55:00,85.7,73.9,29.73,WNW,295,10.0,29.0,68,0.00,,,0.00,Wunderground v.1.15,2013-09-13 20:55:00,
2013-09-13 17:05:00,85.1,73.8,29.73,NW,317,13.0,13.0,69,0.00,,,0.00,Wunderground v.1.15,2013-09-13 21:05:00,
2013-09-13 17:15:00,85.3,74.0,29.73,West,277,11.0,29.0,69,0.00,,,0.00,Wunderground v.1.15,2013-09-13 21:15:00,
2013-09-13 17:25:00,85.3,74.0,29.72,WNW,296,13.0,20.0,69,0.00,,,0.00,Wunderground v.1.15,2013-09-13 21:25:00,
2013-09-13 17:30:00,85.1,73.8,29.72,West,278,11.0,29.0,69,0.00,,,0.00,Wunderground v.1.15,2013-09-13 21:30:00,
2013-09-13 17:40:00,85.1,73.8,29.73,West,267,10.0,29.0,69,0.00,,,0.00,Wunderground v.1.15,2013-09-13 21:40:00,
2013-09-13 17:50:00,84.9,73.6,29.73,West,280,12.0,12.0,69,0.00,,,0.00,Wunderground v.1.15,2013-09-13 21:50:00,
2013-09-13 18:00:00,85.1,73.8,29.72,WNW,297,9.0,29.0,69,0.00,,,0.00,Wunderground v.1.15,2013-09-13 22:00:00,
2013-09-13 18:10:00,85.3,74.0,29.72,West,280,9.0,9.0,69,0.00,,,0.00,Wunderground v.1.15,2013-09-13 22:10:00,
2013-09-13 18:20:00,84.9,73.6,29.72,West,279,9.0,19.0,69,0.00,,,0.00,Wunderground v.1.15,2013-09-13 22:20:00,
2013-09-13 18:30:00,84.7,73.4,29.72,NW,319,12.0,19.0,69,0.00,,,0.00,Wunderground v.1.15,2013-09-13 22:30:00,
2013-09-13 18:40:00,84.7,73.8,29.73,NW,305,6.0,6.0,70,0.00,,,0.00,Wunderground v.1.15,2013-09-13 22:40:00,
2013-09-13 18:50:00,84.3,73.9,29.73,WNW,297,7.0,19.0,71,0.00,,,0.00,Wunderground v.1.15,2013-09-13 22:50:00,
2013-09-13 18:55:00,84.5,74.1,29.73,NW,305,5.0,19.0,71,0.00,,,0.00,Wunderground v.1.15,2013-09-13 22:55:00,
2013-09-13 19:05:00,84.3,74.3,29.73,WNW,302,4.0,6.0,72,0.00,,,0.00,Wunderground v.1.15,2013-09-13 23:05:00,
2013-09-13 19:15:00,84.0,74.0,29.73,WNW,293,1.0,19.0,72,0.00,,,0.00,Wunderground v.1.15,2013-09-13 23:15:00,
2013-09-13 19:25:00,83.8,74.2,29.73,WNW,291,0.0,19.0,73,0.00,,,0.00,Wunderground v.1.15,2013-09-13 23:25:00,
2013-09-13 19:30:00,83.4,73.8,29.73,WNW,291,0.0,19.0,73,0.00,,,0.00,Wunderground v.1.15,2013-09-13 23:30:00,
2013-09-13 19:40:00,83.2,74.0,29.74,WNW,291,0.0,19.0,74,0.00,,,0.00,Wunderground v.1.15,2013-09-13 23:40:00,
2013-09-13 19:50:00,82.8,74.1,29.74,WNW,291,0.0,19.0,75,0.00,,,0.00,Wunderground v.1.15,2013-09-13 23:50:00,
2013-09-13 20:00:00,82.4,73.7,29.74,WNW,291,0.0,19.0,75,0.00,,,0.00,Wunderground v.1.15,2013-09-14 00:00:00,
2013-09-13 20:10:00,82.0,73.3,29.74,WNW,291,0.0,19.0,75,0.00,,,0.00,Wunderground v.1.15,2013-09-14 00:10:00,
2013-09-13 20:20:00,82.0,73.7,29.74,WNW,291,0.0,19.0,76,0.00,,,0.00,Wunderground v.1.15,2013-09-14 00:20:00,
2013-09-13 20:30:00,82.2,73.9,29.74,WNW,292,0.0,19.0,76,0.00,,,0.00,Wunderground v.1.15,2013-09-14 00:30:00,
2013-09-13 20:40:00,82.2,73.9,29.74,WNW,292,0.0,19.0,76,0.00,,,0.00,Wunderground v.1.15,2013-09-14 00:40:00,
2013-09-13 20:50:00,82.0,74.1,29.74,WNW,292,0.0,19.0,77,0.00,,,0.00,Wunderground v.1.15,2013-09-14 00:50:00,
2013-09-13 21:00:00,82.0,74.1,29.75,WNW,292,0.0,19.0,77,0.00,,,0.00,Wunderground v.1.15,2013-09-14 01:00:00,
2013-09-13 21:10:00,82.0,74.1,29.75,WNW,292,0.0,0.0,77,0.00,,,0.00,Wunderground v.1.15,2013-09-14 01:10:00,
2013-09-13 21:20:00,82.0,74.5,29.75,WNW,292,0.0,0.0,78,0.00,,,0.00,Wunderground v.1.15,2013-09-14 01:20:00,
2013-09-13 21:30:00,81.4,73.9,29.75,WNW,292,0.0,0.0,78,0.00,,,0.00,Wunderground v.1.15,2013-09-14 01:30:00,
2013-09-13 21:40:00,80.9,74.1,29.75,WNW,292,0.0,0.0,80,0.00,,,0.00,Wunderground v.1.15,2013-09-14 01:40:00,
2013-09-13 21:50:00,80.7,74.3,29.75,WNW,292,0.0,0.0,81,0.00,,,0.00,Wunderground v.1.15,2013-09-14 01:50:00,
2013-09-13 22:00:00,80.3,73.6,29.75,WNW,292,0.0,0.0,80,0.00,,,0.00,Wunderground v.1.15,2013-09-14 02:00:00,
2013-09-13 22:10:00,80.3,73.9,29.76,WNW,292,0.0,0.0,81,0.00,,,0.00,Wunderground v.1.15,2013-09-14 02:10:00,
2013-09-13 22:20:00,79.9,73.9,29.76,WNW,292,0.0,0.0,82,0.00,,,0.00,Wunderground v.1.15,2013-09-14 02:20:00,
2013-09-13 22:25:00,79.9,73.9,29.76,WNW,292,0.0,0.0,82,0.00,,,0.00,Wunderground v.1.15,2013-09-14 02:25:00,
2013-09-13 22:35:00,79.8,73.8,29.76,WNW,292,0.0,0.0,82,0.00,,,0.00,Wunderground v.1.15,2013-09-14 02:35:00,
2013-09-13 22:45:00,79.4,73.8,29.77,WNW,292,0.0,0.0,83,0.00,,,0.00,Wunderground v.1.15,2013-09-14 02:45:00,
2013-09-13 22:50:00,79.4,73.8,29.77,WNW,292,0.0,0.0,83,0.00,,,0.00,Wunderground v.1.15,2013-09-14 02:50:00,
2013-09-13 23:00:00,79.2,73.9,29.77,WNW,292,0.0,0.0,84,0.00,,,0.00,Wunderground v.1.15,2013-09-14 03:00:00,
2013-09-13 23:05:00,79.2,73.9,29.77,WNW,292,0.0,0.0,84,0.00,,,0.00,Wunderground v.1.15,2013-09-14 03:05:00,
2013-09-13 23:15:00,79.0,73.7,29.77,WNW,292,0.0,0.0,84,0.00,,,0.00,Wunderground v.1.15,2013-09-14 03:15:00,
2013-09-13 23:25:00,79.2,73.9,29.77,WNW,292,0.0,0.0,84,0.00,,,0.00,Wunderground v.1.15,2013-09-14 03:25:00,
2013-09-13 23:35:00,79.0,73.7,29.77,WNW,292,0.0,0.0,84,0.00,,,0.00,Wunderground v.1.15,2013-09-14 03:35:00,
2013-09-13 23:45:00,78.8,73.6,29.77,WNW,292,0.0,0.0,84,0.00,,,0.00,Wunderground v.1.15,2013-09-14 03:45:00,
2013-09-13 23:55:00,78.6,73.4,29.77,WNW,292,0.0,0.0,84,0.00,,,0.00,Wunderground v.1.15,2013-09-14 03:55:00,